This is the latest recevied weather packets stored in our database for station/object eb1ayw-13. If no packets are shown the sender has not sent any weather packets the latest 10 day(s).
| Time | Temp. | Humidity | Pressure | Rain* | Wind** | Luminosity | Snow |
|---|---|---|---|---|---|---|---|
| 1777921068 | 33.89° C | 20% | 1004.3 hPa | - | - | - | - |
| 1777919868 | 30.56° C | 23% | 1004.9 hPa | - | - | - | - |
| 1777919268 | 33.89° C | 19% | 1004.1 hPa | - | - | - | - |
| 1777918668 | 32.78° C | 19% | 1004.2 hPa | - | - | - | - |
| 1777918068 | 35.56° C | 18% | 1003.2 hPa | - | - | - | - |
| 1777917468 | 37.78° C | 16% | 1002.4 hPa | - | - | - | - |
| 1777916268 | 37.78° C | 16% | 1002.6 hPa | - | - | - | - |
| 1777915668 | 32.78° C | 19% | 1003.7 hPa | - | - | - | - |
| 1777915068 | 37.22° C | 16% | 1002.5 hPa | - | - | - | - |
| 1777914468 | 41.11° C | 13% | 1001.3 hPa | - | - | - | - |
| 1777913868 | 40.56° C | 13% | 1001.5 hPa | - | - | - | - |
| 1777913268 | 45° C | 11% | 1000.2 hPa | - | - | - | - |
| 1777912668 | 42.78° C | 12% | 1000.8 hPa | - | - | - | - |
| 1777912068 | 45° C | 12% | 1000.3 hPa | - | - | - | - |
| 1777910268 | 39.44° C | 15% | 1001.7 hPa | - | - | - | - |
| 1777909068 | 41.11° C | 14% | 1001.5 hPa | - | - | - | - |
| 1777908468 | 37.22° C | 16% | 1002.5 hPa | - | - | - | - |
| 1777907868 | 40.56° C | 14% | 1001.4 hPa | - | - | - | - |
| 1777907268 | 41.11° C | 15% | 1001.4 hPa | - | - | - | - |
| 1777906669 | 38.89° C | 16% | 1002.2 hPa | - | - | - | - |
| 1777906068 | 39.44° C | 16% | 1002 hPa | - | - | - | - |
| 1777905468 | 37.22° C | 17% | 1002.8 hPa | - | - | - | - |
| 1777904868 | 39.44° C | 16% | 1002.3 hPa | - | - | - | - |
| 1777904268 | 41.11° C | 14% | 1001.8 hPa | - | - | - | - |
| 1777903668 | 40.56° C | 15% | 1002 hPa | - | - | - | - |
* Rain since midnight (hover to see other rain measurements)
** Current wind speed in m/s (hover to see current wind gust speed)